createdAt,value
2019-05-28T00:01:08.469Z,81.70
2019-05-28T00:03:38.594Z,81.70
2019-05-28T00:06:09.095Z,81.60
2019-05-28T00:08:39.579Z,81.60
2019-05-28T00:11:10.492Z,81.00
2019-05-28T00:13:40.647Z,81.60
2019-05-28T00:16:11.077Z,81.70
2019-05-28T00:18:41.163Z,81.70
2019-05-28T00:21:11.350Z,81.70
2019-05-28T00:23:41.760Z,81.70
2019-05-28T00:26:12.081Z,81.80
2019-05-28T00:28:42.513Z,81.60
2019-05-28T00:31:12.737Z,81.60
2019-05-28T00:33:42.980Z,81.60
2019-05-28T00:36:13.295Z,81.50
2019-05-28T00:38:44.352Z,81.40
2019-05-28T00:41:14.746Z,81.20
2019-05-28T00:43:45.021Z,81.10
2019-05-28T00:46:15.511Z,80.80
2019-05-28T00:48:45.805Z,80.80
2019-05-28T00:51:16.131Z,80.70
2019-05-28T00:53:46.706Z,80.50
2019-05-28T00:56:17.060Z,80.50
2019-05-28T00:58:48.148Z,80.20
2019-05-28T01:01:18.496Z,80.20
2019-05-28T01:03:48.668Z,80.10
2019-05-28T01:06:19.080Z,80.10
2019-05-28T01:08:49.498Z,80.00
2019-05-28T01:11:19.601Z,80.00
2019-05-28T01:13:50.404Z,79.90
2019-05-28T01:16:20.602Z,79.70
2019-05-28T01:18:50.701Z,79.90
2019-05-28T01:21:20.984Z,79.90
2019-05-28T01:23:51.575Z,79.90
2019-05-28T01:26:21.855Z,79.90
2019-05-28T01:28:52.309Z,79.80
2019-05-28T01:31:22.625Z,79.60
2019-05-28T01:33:52.963Z,79.50
2019-05-28T01:36:23.183Z,79.50
2019-05-28T01:38:54.075Z,79.40
2019-05-28T01:41:24.686Z,79.40
2019-05-28T01:43:54.913Z,79.40
2019-05-28T01:46:25.222Z,79.40
2019-05-28T01:48:55.468Z,79.40
2019-05-28T01:51:25.630Z,79.30
2019-05-28T01:53:55.942Z,79.20
2019-05-28T01:56:26.986Z,79.10
2019-05-28T01:58:57.325Z,79.10
2019-05-28T02:01:28.078Z,79.20
2019-05-28T02:03:58.401Z,79.10
2019-05-28T02:06:28.510Z,78.80
2019-05-28T02:08:59.148Z,78.70
2019-05-28T02:11:29.574Z,78.60
2019-05-28T02:13:59.752Z,78.60
2019-05-28T02:16:30.245Z,78.40
2019-05-28T02:19:00.440Z,78.30
2019-05-28T02:21:30.733Z,78.30
2019-05-28T02:24:01.245Z,78.30
2019-05-28T02:26:31.890Z,78.00
2019-05-28T02:29:02.465Z,77.90
2019-05-28T02:31:33.483Z,77.70
2019-05-28T02:34:04.568Z,77.60
2019-05-28T02:36:34.765Z,77.50
2019-05-28T02:39:06.464Z,77.20
2019-05-28T02:41:36.643Z,77.10
2019-05-28T02:44:07.426Z,77.00
2019-05-28T02:46:37.686Z,77.00
2019-05-28T02:49:08.107Z,76.80
2019-05-28T02:51:38.821Z,76.70
2019-05-28T02:54:09.645Z,76.70
2019-05-28T02:56:41.314Z,76.60
2019-05-28T02:59:14.459Z,76.40
2019-05-28T03:01:46.171Z,76.30
2019-05-28T03:04:17.226Z,76.30
2019-05-28T03:06:49.758Z,76.20
2019-05-28T03:09:21.874Z,76.10
2019-05-28T03:11:53.586Z,75.90
2019-05-28T03:14:24.091Z,75.90
2019-05-28T03:16:57.295Z,75.50
2019-05-28T03:19:28.971Z,75.20
2019-05-28T03:22:02.208Z,75.00
2019-05-28T03:24:34.546Z,74.90
2019-05-28T03:27:04.991Z,74.70
2019-05-28T03:29:35.488Z,74.40
2019-05-28T03:32:08.554Z,74.00
2019-05-28T03:34:37.587Z,73.60
2019-05-28T03:37:09.002Z,73.60
2019-05-28T03:39:40.261Z,73.30
2019-05-28T03:42:10.675Z,73.10
2019-05-28T03:44:41.957Z,73.10
2019-05-28T03:47:12.173Z,72.70
2019-05-28T03:49:42.532Z,72.50
2019-05-28T03:52:12.901Z,72.60
2019-05-28T03:54:43.515Z,72.70
2019-05-28T03:57:13.874Z,72.50
2019-05-28T03:59:44.434Z,72.30
2019-05-28T04:02:23.314Z,72.40
2019-05-28T04:04:46.530Z,72.30
2019-05-28T04:07:16.979Z,72.10
2019-05-28T04:09:47.825Z,71.60
2019-05-28T04:12:18.113Z,71.10
2019-05-28T04:14:48.662Z,70.80
2019-05-28T04:17:19.067Z,70.30
2019-05-28T04:19:49.392Z,70.10
2019-05-28T04:22:19.902Z,70.00
2019-05-28T04:24:50.137Z,68.80
2019-05-28T04:27:20.467Z,69.60
2019-05-28T04:29:51.200Z,69.40
2019-05-28T04:32:21.537Z,69.30
2019-05-28T04:34:54.880Z,68.90
2019-05-28T04:37:25.241Z,68.80
2019-05-28T04:39:55.627Z,68.70
2019-05-28T04:42:26.075Z,68.50
2019-05-28T04:44:56.504Z,68.30
2019-05-28T04:47:27.388Z,68.10
2019-05-28T04:49:57.708Z,68.00
2019-05-28T04:52:30.662Z,68.20
2019-05-28T04:54:59.689Z,68.20
2019-05-28T04:57:30.525Z,68.00
2019-05-28T05:00:02.481Z,67.80
2019-05-28T05:02:33.264Z,67.60
2019-05-28T05:05:03.662Z,67.10
2019-05-28T05:07:34.102Z,67.20
2019-05-28T05:10:04.978Z,66.90
2019-05-28T05:12:35.300Z,66.80
2019-05-28T05:15:06.877Z,66.80
2019-05-28T05:17:37.368Z,66.80
2019-05-28T05:20:08.911Z,66.50
2019-05-28T05:22:39.442Z,66.50
2019-05-28T05:25:09.952Z,66.10
2019-05-28T05:27:40.353Z,66.00
2019-05-28T05:30:10.882Z,66.20
2019-05-28T05:32:41.289Z,66.00
2019-05-28T05:35:11.701Z,65.70
2019-05-28T05:37:42.033Z,65.10
2019-05-28T05:40:14.141Z,64.80
2019-05-28T05:42:44.561Z,64.80
2019-05-28T05:45:15.140Z,64.80
2019-05-28T05:47:45.477Z,64.90
2019-05-28T05:50:16.314Z,64.90
2019-05-28T05:54:27.889Z,65.10
2019-05-28T05:56:58.204Z,64.20
2019-05-28T05:59:28.391Z,64.00
2019-05-28T06:01:58.823Z,63.90
2019-05-28T06:04:29.009Z,63.80
2019-05-28T06:06:59.229Z,63.50
2019-05-28T06:09:29.561Z,63.50
2019-05-28T06:11:59.766Z,63.10
2019-05-28T06:14:30.102Z,63.30
2019-05-28T06:17:00.441Z,63.40
2019-05-28T06:19:30.919Z,64.40
2019-05-28T06:22:01.480Z,63.70
2019-05-28T06:24:31.754Z,64.10
2019-05-28T06:27:02.092Z,64.40
2019-05-28T06:29:32.683Z,64.70
2019-05-28T06:32:02.909Z,65.10
2019-05-28T06:34:33.210Z,65.50
2019-05-28T06:37:03.654Z,65.50
2019-05-28T06:39:34.116Z,65.70
2019-05-28T06:42:04.655Z,66.30
2019-05-28T06:44:34.996Z,66.90
2019-05-28T06:47:05.471Z,67.10
2019-05-28T06:49:35.749Z,67.60
2019-05-28T06:52:06.141Z,68.30
2019-05-28T06:54:36.647Z,68.80
2019-05-28T06:57:21.926Z,69.40
2019-05-28T06:59:38.819Z,69.90
2019-05-28T07:02:09.197Z,70.40
2019-05-28T07:04:39.574Z,71.00
2019-05-28T07:07:09.741Z,71.20
2019-05-28T07:09:40.093Z,71.80
2019-05-28T07:12:10.290Z,70.80
2019-05-28T07:14:40.795Z,71.40
2019-05-28T07:17:11.298Z,71.60
2019-05-28T07:19:41.690Z,72.20
2019-05-28T07:22:12.280Z,73.20
2019-05-28T07:24:42.589Z,73.80
2019-05-28T07:27:12.993Z,75.50
2019-05-28T07:29:43.252Z,74.70
2019-05-28T07:32:13.591Z,75.20
2019-05-28T07:34:43.972Z,75.90
2019-05-28T07:37:14.315Z,76.40
2019-05-28T07:39:46.040Z,76.90
2019-05-28T07:42:31.718Z,77.70
2019-05-28T07:44:48.710Z,78.10
2019-05-28T07:47:19.084Z,78.30
2019-05-28T07:49:49.573Z,78.40
2019-05-28T07:52:19.851Z,78.60
2019-05-28T07:54:50.345Z,78.80
2019-05-28T07:57:21.072Z,79.10
2019-05-28T07:59:51.236Z,79.40
2019-05-28T08:02:21.544Z,79.70
2019-05-28T08:04:51.966Z,80.00
2019-05-28T08:07:22.409Z,80.00
2019-05-28T08:09:52.953Z,80.20
2019-05-28T08:12:23.326Z,80.30
2019-05-28T08:14:53.521Z,80.40
2019-05-28T08:17:23.900Z,80.40
2019-05-28T08:19:54.188Z,80.40
2019-05-28T08:22:38.723Z,80.40
2019-05-28T08:24:56.107Z,80.30
2019-05-28T08:27:26.439Z,80.30
2019-05-28T08:29:56.934Z,80.20
2019-05-28T08:32:27.377Z,80.20
2019-05-28T08:35:05.679Z,80.30
2019-05-28T08:37:29.929Z,80.50
2019-05-28T08:40:00.563Z,80.40
2019-05-28T08:42:31.327Z,80.30
2019-05-28T08:45:01.632Z,80.60
2019-05-28T08:47:31.790Z,80.50
2019-05-28T08:50:02.137Z,80.80
2019-05-28T08:52:32.297Z,80.80
2019-05-28T08:55:02.725Z,80.80
2019-05-28T08:57:33.019Z,80.80
2019-05-28T09:02:51.974Z,80.30
2019-05-28T09:05:26.515Z,80.50
2019-05-28T09:07:53.835Z,79.70
2019-05-28T09:10:24.210Z,79.30
2019-05-28T09:12:54.467Z,78.60
2019-05-28T09:15:24.749Z,78.90
2019-05-28T09:17:55.053Z,79.10
2019-05-28T09:21:33.924Z,79.50
2019-05-28T09:24:04.272Z,79.80
2019-05-28T09:26:34.447Z,80.00
2019-05-28T09:29:04.806Z,80.30
2019-05-28T09:31:35.323Z,80.40
2019-05-28T09:34:05.859Z,81.60
2019-05-28T09:36:36.188Z,80.80
2019-05-28T09:39:08.666Z,81.10
2019-05-28T09:41:38.974Z,81.30
2019-05-28T09:44:09.376Z,81.40
2019-05-28T09:46:39.639Z,82.10
2019-05-28T09:49:09.987Z,81.90
2019-05-28T09:51:40.349Z,82.20
2019-05-28T09:54:10.900Z,82.40
2019-05-28T09:56:41.697Z,82.30
2019-05-28T09:59:12.061Z,82.20
2019-05-28T10:01:42.576Z,81.90
2019-05-28T10:06:13.416Z,81.90
2019-05-28T10:08:29.060Z,81.80
2019-05-28T10:10:59.564Z,82.00
2019-05-28T10:13:38.846Z,81.70
2019-05-28T10:16:01.632Z,80.90
2019-05-28T10:18:32.044Z,80.90
2019-05-28T10:21:16.983Z,81.00
2019-05-28T10:23:34.000Z,80.90
2019-05-28T10:26:04.353Z,81.20
2019-05-28T10:28:34.639Z,81.40
2019-05-28T10:31:05.269Z,81.30
2019-05-28T10:33:35.608Z,81.70
2019-05-28T10:36:06.236Z,81.90
2019-05-28T10:38:36.983Z,82.40
2019-05-28T10:41:07.502Z,82.00
2019-05-28T10:43:37.996Z,82.10
2019-05-28T10:46:08.515Z,82.30
2019-05-28T10:48:39.017Z,82.30
2019-05-28T10:51:09.385Z,82.40
2019-05-28T10:53:39.896Z,82.60
2019-05-28T10:56:10.323Z,83.00
2019-05-28T10:58:40.782Z,82.90
2019-05-28T11:01:11.144Z,82.90
2019-05-28T11:03:41.405Z,83.10
2019-05-28T11:06:11.711Z,83.30
2019-05-28T11:08:42.006Z,83.40
2019-05-28T11:11:12.480Z,83.60
2019-05-28T11:13:52.653Z,83.70
2019-05-28T11:16:14.505Z,83.60
2019-05-28T11:18:44.789Z,83.60
2019-05-28T11:21:15.103Z,83.70
2019-05-28T11:23:45.297Z,83.70
2019-05-28T11:26:15.659Z,83.80
2019-05-28T11:28:45.968Z,83.70
2019-05-28T11:31:16.459Z,83.80
2019-05-28T11:33:46.819Z,83.90
2019-05-28T11:36:17.106Z,83.90
2019-05-28T11:38:47.297Z,83.90
2019-05-28T11:41:17.890Z,84.70
2019-05-28T11:43:48.257Z,84.10
2019-05-28T11:46:18.502Z,84.20
2019-05-28T11:48:48.878Z,84.30
2019-05-28T11:51:19.537Z,84.30
2019-05-28T11:53:49.834Z,84.40
2019-05-28T11:56:20.021Z,84.50
2019-05-28T11:58:50.266Z,84.50
2019-05-28T12:01:33.782Z,84.50
2019-05-28T12:03:52.522Z,84.50
2019-05-28T12:06:22.943Z,84.60
2019-05-28T12:08:53.459Z,84.70
2019-05-28T12:11:23.753Z,84.70
2019-05-28T12:13:54.036Z,84.80
2019-05-28T12:16:24.454Z,84.90
2019-05-28T12:18:58.215Z,84.90
2019-05-28T12:21:26.456Z,84.80
2019-05-28T12:23:56.788Z,84.90
2019-05-28T12:26:27.096Z,84.80
2019-05-28T12:28:57.415Z,84.90
2019-05-28T12:31:27.717Z,84.90
2019-05-28T12:33:58.154Z,85.00
2019-05-28T12:36:28.203Z,84.90
2019-05-28T12:38:58.427Z,85.00
2019-05-28T12:41:28.842Z,85.00
2019-05-28T12:43:59.311Z,84.90
2019-05-28T12:46:29.668Z,84.80
2019-05-28T12:48:59.951Z,85.00
2019-05-28T12:51:30.465Z,85.10
2019-05-28T12:54:00.716Z,85.10
2019-05-28T12:56:31.024Z,85.00
2019-05-28T12:59:01.193Z,85.10
2019-05-28T13:01:31.499Z,85.20
2019-05-28T13:04:01.759Z,85.30
2019-05-28T13:06:32.022Z,85.40
2019-05-28T13:09:02.284Z,85.40
2019-05-28T13:11:32.637Z,85.60
2019-05-28T13:14:02.915Z,85.60
2019-05-28T13:16:33.288Z,85.70
2019-05-28T13:19:03.469Z,85.80
2019-05-28T13:21:33.709Z,85.90
2019-05-28T13:24:04.051Z,85.90
2019-05-28T13:26:34.534Z,86.10
2019-05-28T13:29:04.793Z,86.20
2019-05-28T13:31:35.200Z,86.20
2019-05-28T13:34:06.138Z,86.30
2019-05-28T13:36:36.561Z,86.30
2019-05-28T13:39:08.776Z,86.20
2019-05-28T13:41:39.364Z,86.20
2019-05-28T13:44:09.861Z,86.20
2019-05-28T13:46:41.590Z,86.10
2019-05-28T13:49:11.784Z,86.20
2019-05-28T13:51:42.132Z,86.20
2019-05-28T13:54:12.288Z,86.20
2019-05-28T13:56:42.763Z,86.20
2019-05-28T13:59:13.029Z,86.20
2019-05-28T14:01:43.215Z,86.30
2019-05-28T14:04:13.416Z,86.40
2019-05-28T14:06:44.703Z,86.50
2019-05-28T14:09:15.299Z,86.60
2019-05-28T14:11:45.759Z,86.60
2019-05-28T14:14:15.983Z,86.70
2019-05-28T14:16:46.362Z,86.70
2019-05-28T14:19:16.593Z,86.80
2019-05-28T14:21:47.029Z,86.80
2019-05-28T14:24:17.354Z,86.90
2019-05-28T14:26:47.609Z,86.90
2019-05-28T14:29:17.842Z,86.90
2019-05-28T14:31:48.111Z,87.00
2019-05-28T14:34:18.157Z,87.10
2019-05-28T14:36:48.500Z,87.00
2019-05-28T14:39:19.216Z,87.00
2019-05-28T14:41:49.445Z,87.00
2019-05-28T14:44:19.600Z,87.00
2019-05-28T14:46:50.018Z,86.90
2019-05-28T14:49:20.303Z,87.00
2019-05-28T14:51:50.493Z,87.00
2019-05-28T14:54:20.723Z,87.00
2019-05-28T14:56:51.065Z,87.00
2019-05-28T14:59:21.352Z,87.00
2019-05-28T15:01:51.638Z,86.90
2019-05-28T15:04:22.340Z,86.90
2019-05-28T15:06:52.942Z,86.90
2019-05-28T15:09:23.330Z,86.90
2019-05-28T15:11:53.630Z,86.80
2019-05-28T15:14:23.772Z,86.90
2019-05-28T15:16:54.199Z,86.90
2019-05-28T15:19:24.286Z,86.90
2019-05-28T15:21:54.468Z,86.90
2019-05-28T15:24:24.837Z,87.70
2019-05-28T15:26:55.108Z,87.00
2019-05-28T15:29:25.625Z,86.90
2019-05-28T15:31:55.859Z,86.90
2019-05-28T15:34:26.103Z,86.90
2019-05-28T15:36:56.386Z,86.90
2019-05-28T15:39:38.966Z,87.00
2019-05-28T15:41:58.645Z,87.10
2019-05-28T15:44:29.030Z,87.10
2019-05-28T15:46:59.432Z,87.20
2019-05-28T15:49:29.714Z,87.20
2019-05-28T15:52:07.665Z,87.30
2019-05-28T15:54:32.113Z,87.40
2019-05-28T15:57:02.329Z,87.40
2019-05-28T15:59:32.990Z,87.50
2019-05-28T16:02:03.218Z,87.40
2019-05-28T16:04:33.388Z,87.40
2019-05-28T16:07:03.727Z,87.30
2019-05-28T16:09:34.002Z,87.40
2019-05-28T16:12:04.135Z,87.50
2019-05-28T16:14:34.613Z,87.40
2019-05-28T16:17:04.855Z,87.60
2019-05-28T16:19:35.111Z,87.60
2019-05-28T16:22:05.510Z,87.60
2019-05-28T16:24:35.957Z,87.60
2019-05-28T16:27:06.455Z,87.50
2019-05-28T16:29:36.810Z,87.50
2019-05-28T16:32:06.968Z,87.50
2019-05-28T16:34:37.356Z,87.30
2019-05-28T16:37:07.610Z,87.20
2019-05-28T16:39:38.003Z,87.20
2019-05-28T16:42:08.458Z,87.10
2019-05-28T16:44:38.659Z,87.10
2019-05-28T16:47:16.607Z,87.00
2019-05-28T16:49:40.548Z,87.00
2019-05-28T16:52:10.786Z,87.10
2019-05-28T16:54:41.251Z,87.00
2019-05-28T16:57:11.751Z,87.20
2019-05-28T16:59:42.140Z,87.30
2019-05-28T17:02:12.691Z,87.40
2019-05-28T17:04:42.984Z,87.50
2019-05-28T17:07:12.992Z,87.60
2019-05-28T17:09:43.352Z,87.70
2019-05-28T17:12:13.527Z,87.90
2019-05-28T17:14:43.905Z,88.00
2019-05-28T17:17:14.042Z,88.00
2019-05-28T17:19:44.876Z,88.00
2019-05-28T17:22:15.042Z,88.10
2019-05-28T17:24:45.402Z,88.10
2019-05-28T17:27:16.032Z,88.20
2019-05-28T17:29:49.690Z,88.30
2019-05-28T17:32:17.813Z,88.30
2019-05-28T17:34:48.142Z,88.40
2019-05-28T17:37:18.739Z,88.40
2019-05-28T17:39:49.065Z,88.40
2019-05-28T17:42:19.064Z,88.40
2019-05-28T17:44:49.477Z,88.40
2019-05-28T17:47:19.741Z,88.40
2019-05-28T17:49:50.156Z,88.50
2019-05-28T17:52:20.359Z,88.40
2019-05-28T17:54:50.881Z,88.60
2019-05-28T17:57:21.174Z,88.50
2019-05-28T17:59:51.454Z,88.40
2019-05-28T18:02:21.731Z,88.40
2019-05-28T18:04:52.139Z,88.60
2019-05-28T18:07:22.380Z,88.60
2019-05-28T18:09:52.601Z,88.60
2019-05-28T18:12:22.878Z,88.60
2019-05-28T18:14:53.207Z,88.60
2019-05-28T18:17:23.454Z,88.60
2019-05-28T18:19:53.872Z,88.60
2019-05-28T18:22:24.142Z,88.60
2019-05-28T18:24:54.433Z,88.60
2019-05-28T18:27:24.870Z,88.70
2019-05-28T18:29:55.135Z,88.80
2019-05-28T18:32:25.522Z,88.80
2019-05-28T18:34:55.855Z,88.70
2019-05-28T18:37:26.276Z,88.70
2019-05-28T18:39:56.791Z,88.80
2019-05-28T18:42:27.031Z,88.70
2019-05-28T18:44:57.652Z,88.60
2019-05-28T18:47:27.860Z,88.70
2019-05-28T18:50:03.566Z,88.60
2019-05-28T18:52:29.769Z,88.70
2019-05-28T18:55:00.123Z,88.70
2019-05-28T18:57:30.365Z,88.70
2019-05-28T19:00:00.686Z,88.60
2019-05-28T19:02:31.065Z,88.60
2019-05-28T19:05:01.508Z,88.60
2019-05-28T19:07:31.818Z,88.60
2019-05-28T19:10:02.321Z,88.60
2019-05-28T19:12:32.549Z,88.60
2019-05-28T19:15:02.828Z,88.60
2019-05-28T19:17:33.197Z,88.60
2019-05-28T19:20:03.564Z,88.60
2019-05-28T19:22:33.653Z,88.70
2019-05-28T19:25:03.978Z,88.70
2019-05-28T19:27:35.683Z,88.70
2019-05-28T19:30:08.989Z,88.70
2019-05-28T19:32:39.207Z,88.70
2019-05-28T19:35:11.167Z,88.80
2019-05-28T19:37:42.319Z,88.70
2019-05-28T19:40:13.252Z,88.70
2019-05-28T19:42:43.651Z,88.70
2019-05-28T19:45:14.242Z,88.70
2019-05-28T19:47:44.762Z,88.70
2019-05-28T19:50:15.155Z,88.80
2019-05-28T19:52:45.372Z,88.80
2019-05-28T19:55:15.640Z,88.80
2019-05-28T19:57:45.920Z,88.80
2019-05-28T20:00:16.705Z,88.80
2019-05-28T20:02:47.022Z,88.90
2019-05-28T20:05:17.631Z,88.80
2019-05-28T20:07:47.914Z,89.00
2019-05-28T20:10:18.638Z,88.90
2019-05-28T20:12:49.145Z,89.10
2019-05-28T20:15:22.516Z,88.80
2019-05-28T20:17:52.471Z,88.70
2019-05-28T20:20:23.231Z,88.70
2019-05-28T20:22:54.008Z,88.60
2019-05-28T20:25:24.420Z,88.60
2019-05-28T20:27:55.944Z,88.60
2019-05-28T20:30:26.550Z,88.60
2019-05-28T20:32:56.935Z,88.60
2019-05-28T20:35:30.847Z,88.50
2019-05-28T20:37:59.585Z,88.50
2019-05-28T20:40:29.976Z,88.60
2019-05-28T20:43:00.300Z,88.60
2019-05-28T20:45:30.685Z,88.70
2019-05-28T20:48:00.919Z,88.70
2019-05-28T20:50:31.252Z,88.80
2019-05-28T20:53:01.698Z,88.80
2019-05-28T20:55:31.748Z,88.80
2019-05-28T20:58:02.256Z,88.80
2019-05-28T21:00:32.774Z,89.00
2019-05-28T21:03:03.181Z,88.90
2019-05-28T21:05:33.525Z,89.00
2019-05-28T21:08:04.061Z,89.10
2019-05-28T21:10:34.359Z,89.10
2019-05-28T21:13:04.884Z,89.10
2019-05-28T21:15:35.327Z,89.10
2019-05-28T21:18:05.850Z,89.10
2019-05-28T21:20:36.267Z,89.10
2019-05-28T21:23:06.535Z,89.10
2019-05-28T21:25:36.800Z,89.10
2019-05-28T21:28:07.184Z,89.10
2019-05-28T21:30:37.702Z,89.10
2019-05-28T21:33:07.881Z,89.20
2019-05-28T21:35:38.185Z,89.20
2019-05-28T21:38:08.478Z,89.30
2019-05-28T21:40:39.848Z,89.30
2019-05-28T21:43:10.144Z,89.20
2019-05-28T21:45:40.334Z,89.30
2019-05-28T21:48:10.720Z,89.20
2019-05-28T21:50:40.916Z,89.30
2019-05-28T21:53:11.233Z,89.20
2019-05-28T21:55:41.412Z,89.10
2019-05-28T21:58:11.629Z,89.20
2019-05-28T22:00:48.750Z,89.30
2019-05-28T22:03:19.222Z,89.20
2019-05-28T22:05:49.747Z,89.40
2019-05-28T22:08:20.022Z,89.40
2019-05-28T22:10:51.707Z,89.40
2019-05-28T22:13:22.795Z,89.40
2019-05-28T22:15:53.301Z,89.40
2019-05-28T22:18:23.736Z,89.70
2019-05-28T22:20:54.087Z,89.40
2019-05-28T22:23:24.416Z,89.30
2019-05-28T22:25:54.624Z,89.30
2019-05-28T22:28:25.438Z,89.20
2019-05-28T22:30:55.683Z,89.20
2019-05-28T22:33:26.009Z,89.20
2019-05-28T22:35:57.063Z,89.10
2019-05-28T22:38:27.471Z,89.10
2019-05-28T22:40:58.289Z,89.10
2019-05-28T22:43:31.476Z,89.10
2019-05-28T22:46:01.258Z,89.10
2019-05-28T22:48:31.710Z,89.10
2019-05-28T22:51:01.908Z,89.10
2019-05-28T22:53:32.463Z,89.10
2019-05-28T22:56:04.937Z,89.10
2019-05-28T22:58:34.148Z,89.00
2019-05-28T23:01:04.608Z,88.90
2019-05-28T23:03:34.861Z,89.10
2019-05-28T23:06:05.411Z,89.10
2019-05-28T23:08:35.750Z,89.20
2019-05-28T23:11:06.927Z,89.20
2019-05-28T23:13:46.377Z,89.30
2019-05-28T23:16:10.300Z,89.30
2019-05-28T23:18:40.871Z,89.40
2019-05-28T23:21:11.307Z,89.40
2019-05-28T23:23:41.744Z,89.30
2019-05-28T23:26:11.959Z,89.40
2019-05-28T23:28:42.295Z,89.30
2019-05-28T23:31:12.680Z,89.30
2019-05-28T23:33:42.841Z,89.30
2019-05-28T23:36:13.059Z,89.30
2019-05-28T23:38:43.816Z,89.30
2019-05-28T23:41:13.999Z,89.30
2019-05-28T23:43:44.274Z,89.40
2019-05-28T23:46:14.641Z,89.40
2019-05-28T23:48:44.856Z,89.40
2019-05-28T23:51:15.085Z,89.40
2019-05-28T23:53:45.440Z,89.40
2019-05-28T23:56:15.637Z,89.30
2019-05-28T23:58:45.961Z,89.30
